Time;durP1;ratioP1;P1;durP2;ratioP2;P2;SDS_P1;SDS_P2;PMS_P1;PMS_P2;Temp;Humidity;BMP_temperature;BMP_pressure;BME280_temperature;BME280_humidity;BME280_pressure;Samples;Min_cycle;Max_cycle;Signal;HPM_P1;HPM_P2
2022/02/08 00:00:10;;;;;;;13.45;4.05;;;;;;;;;;4941175;28;21973;-62
2022/02/08 00:02:41;;;;;;;17.85;4.35;;;;;;;;;;4941060;28;20046;-61
2022/02/08 00:05:09;;;;;;;22.45;4.82;;;;;;;;;;4955882;28;20043;-60
2022/02/08 00:07:35;;;;;;;25.17;5.30;;;;;;;;;;4941997;28;20031;-61
2022/02/08 00:10:00;;;;;;;17.70;4.55;;;;;;;;;;4940545;28;20038;-61
2022/02/08 00:12:49;;;;;;;18.23;4.50;;;;;;;;;;4939024;28;20036;-61
2022/02/08 00:15:31;;;;;;;18.23;4.43;;;;;;;;;;4941969;28;20114;-61
2022/02/08 00:18:04;;;;;;;17.63;4.55;;;;;;;;;;4939491;28;20031;-61
2022/02/08 00:20:29;;;;;;;15.45;4.00;;;;;;;;;;4941155;28;20533;-60
2022/02/08 00:22:55;;;;;;;31.98;6.45;;;;;;;;;;4939773;28;20512;-60
2022/02/08 00:25:20;;;;;;;9.70;4.05;;;;;;;;;;4941224;28;20097;-62
2022/02/08 00:27:50;;;;;;;21.65;5.32;;;;;;;;;;4951282;28;20071;-60
2022/02/08 00:30:18;;;;;;;27.60;5.22;;;;;;;;;;4953900;28;20169;-59
2022/02/08 00:33:03;;;;;;;23.23;5.93;;;;;;;;;;4940128;28;20078;-61
2022/02/08 00:35:31;;;;;;;24.50;4.95;;;;;;;;;;4940292;28;20084;-60
2022/02/08 00:37:59;;;;;;;11.05;4.53;;;;;;;;;;4925797;28;20478;-60
2022/02/08 00:40:27;;;;;;;19.70;4.38;;;;;;;;;;4935451;28;20506;-60
2022/02/08 00:42:58;;;;;;;15.55;4.75;;;;;;;;;;4926090;28;20042;-60
2022/02/08 00:46:01;;;;;;;23.60;5.03;;;;;;;;;;4938625;28;20470;-61
2022/02/08 00:48:28;;;;;;;17.50;5.22;;;;;;;;;;4921381;28;20066;-60
2022/02/08 00:50:54;;;;;;;18.60;4.70;;;;;;;;;;4928503;28;20051;-60
2022/02/08 00:53:20;;;;;;;20.10;4.55;;;;;;;;;;4940271;28;20089;-62
2022/02/08 00:55:47;;;;;;;29.77;5.20;;;;;;;;;;4957170;28;20117;-60
2022/02/08 00:58:13;;;;;;;17.77;4.63;;;;;;;;;;4940157;28;20183;-59
2022/02/08 01:00:41;;;;;;;28.33;6.15;;;;;;;;;;4939477;28;20062;-60
2022/02/08 01:03:22;;;;;;;33.92;5.65;;;;;;;;;;4940703;28;20035;-59
2022/02/08 01:06:03;;;;;;;13.93;4.20;;;;;;;;;;4939503;28;20068;-59
2022/02/08 01:08:31;;;;;;;26.75;5.20;;;;;;;;;;4956158;28;20125;-60
2022/02/08 01:11:02;;;;;;;25.60;5.07;;;;;;;;;;4924402;28;20038;-60
2022/02/08 01:13:27;;;;;;;32.80;6.35;;;;;;;;;;4935243;28;20038;-59
2022/02/08 01:16:00;;;;;;;20.55;5.05;;;;;;;;;;4919890;28;20023;-59
2022/02/08 01:18:30;;;;;;;20.00;5.28;;;;;;;;;;4955935;28;20260;-60
2022/02/08 01:21:00;;;;;;;16.55;5.80;;;;;;;;;;4940345;28;20109;-59
2022/02/08 01:23:28;;;;;;;22.15;4.95;;;;;;;;;;4936192;28;20039;-58
2022/02/08 01:25:59;;;;;;;18.00;6.32;;;;;;;;;;4937579;28;21103;-59
2022/02/08 01:28:47;;;;;;;36.35;6.57;;;;;;;;;;4956232;28;20031;-59
2022/02/08 01:31:15;;;;;;;17.10;5.82;;;;;;;;;;4939793;28;20161;-60
2022/02/08 01:36:38;;;;;;;18.73;5.83;;;;;;;;;;4950823;28;20038;-59
2022/02/08 01:39:14;;;;;;;10.60;4.60;;;;;;;;;;4940816;28;20069;-59
2022/02/08 01:42:17;;;;;;;12.70;4.90;;;;;;;;;;4940074;28;20038;-59
2022/02/08 01:45:04;;;;;;;14.65;5.97;;;;;;;;;;4940317;28;21006;-59
2022/02/08 01:47:46;;;;;;;17.92;5.72;;;;;;;;;;4940218;28;20043;-59
2022/02/08 01:50:14;;;;;;;17.08;6.00;;;;;;;;;;4937542;28;20569;-59
2022/02/08 01:52:40;;;;;;;16.92;5.90;;;;;;;;;;4940934;28;20023;-58
2022/02/08 01:55:07;;;;;;;20.10;6.15;;;;;;;;;;4939287;28;20031;-58
2022/02/08 01:57:35;;;;;;;24.13;6.03;;;;;;;;;;4940203;28;20046;-59
2022/02/08 02:00:00;;;;;;;13.73;5.82;;;;;;;;;;4922284;28;20494;-59
2022/02/08 02:02:28;;;;;;;18.58;6.53;;;;;;;;;;4952165;28;20059;-59
2022/02/08 02:04:56;;;;;;;12.90;5.88;;;;;;;;;;4952342;28;20275;-59
2022/02/08 02:07:24;;;;;;;16.83;6.15;;;;;;;;;;4940229;28;20031;-59
2022/02/08 02:09:49;;;;;;;8.27;5.00;;;;;;;;;;4947372;28;20057;-62
2022/02/08 02:12:17;;;;;;;20.80;7.22;;;;;;;;;;4945981;28;20054;-59
2022/02/08 02:14:46;;;;;;;14.70;7.05;;;;;;;;;;4940074;28;20370;-59
2022/02/08 02:17:11;;;;;;;21.65;7.07;;;;;;;;;;4947329;28;20138;-59
2022/02/08 02:19:38;;;;;;;20.85;6.70;;;;;;;;;;4944706;28;20074;-59
2022/02/08 02:22:05;;;;;;;16.45;6.20;;;;;;;;;;4958801;28;20042;-58
2022/02/08 02:24:33;;;;;;;18.13;8.85;;;;;;;;;;4942901;28;20030;-58
2022/02/08 02:26:59;;;;;;;21.30;7.65;;;;;;;;;;4944069;28;20059;-58
2022/02/08 02:29:25;;;;;;;18.70;8.15;;;;;;;;;;4945716;28;20125;-59
2022/02/08 02:31:53;;;;;;;28.50;7.10;;;;;;;;;;4958711;28;20548;-60
2022/02/08 02:34:22;;;;;;;23.98;7.57;;;;;;;;;;4944003;28;20035;-59
2022/02/08 02:36:51;;;;;;;24.65;7.20;;;;;;;;;;4943203;28;20078;-59
2022/02/08 02:39:20;;;;;;;31.33;7.82;;;;;;;;;;4946864;28;20053;-59
2022/02/08 02:41:47;;;;;;;21.88;7.30;;;;;;;;;;4942753;28;20039;-59
2022/02/08 02:44:21;;;;;;;21.02;8.30;;;;;;;;;;4927708;28;20047;-59
2022/02/08 02:46:51;;;;;;;34.27;7.97;;;;;;;;;;4942384;28;20034;-59
2022/02/08 02:49:17;;;;;;;32.53;7.75;;;;;;;;;;4945896;28;20035;-59
2022/02/08 02:51:44;;;;;;;33.20;7.70;;;;;;;;;;4945773;28;20034;-59
2022/02/08 02:54:15;;;;;;;26.38;7.28;;;;;;;;;;4944248;28;20039;-59
2022/02/08 02:56:43;;;;;;;30.73;7.30;;;;;;;;;;4960452;28;20109;-59
2022/02/08 02:59:11;;;;;;;35.03;8.38;;;;;;;;;;4944157;28;20027;-59
2022/02/08 03:01:54;;;;;;;33.35;6.90;;;;;;;;;;4959786;28;20126;-59
2022/02/08 03:20:30;;;;;;;42.05;7.63;;;;;;;;;;4956409;28;20066;-59
2022/02/08 03:22:56;;;;;;;32.05;6.97;;;;;;;;;;4942220;28;20530;-59
2022/02/08 03:25:26;;;;;;;35.17;7.68;;;;;;;;;;4937967;28;20031;-60
2022/02/08 03:27:53;;;;;;;24.08;6.40;;;;;;;;;;4941464;28;20057;-60
2022/02/08 03:30:19;;;;;;;27.52;6.70;;;;;;;;;;4941258;28;20054;-61
2022/02/08 03:32:49;;;;;;;23.35;6.50;;;;;;;;;;4941563;28;20031;-59
2022/02/08 03:35:16;;;;;;;26.85;6.15;;;;;;;;;;4942317;28;20583;-59
2022/02/08 03:37:53;;;;;;;42.55;6.20;;;;;;;;;;4939304;28;20582;-59
2022/02/08 03:40:51;;;;;;;33.83;6.13;;;;;;;;;;4941059;28;20062;-59
2022/02/08 03:45:53;;;;;;;23.38;6.68;;;;;;;;;;4940485;28;21291;-60
2022/02/08 03:48:26;;;;;;;30.63;5.78;;;;;;;;;;4942245;28;20046;-61
2022/02/08 03:51:06;;;;;;;17.55;5.70;;;;;;;;;;4939169;28;20030;-60
2022/02/08 03:53:34;;;;;;;28.17;5.07;;;;;;;;;;4941723;28;20035;-59
2022/02/08 03:56:03;;;;;;;34.28;6.15;;;;;;;;;;4942581;28;20022;-59
2022/02/08 03:58:31;;;;;;;24.65;5.32;;;;;;;;;;4941487;28;20421;-59
2022/02/08 04:03:24;;;;;;;21.20;5.18;;;;;;;;;;4937831;28;20051;-60
2022/02/08 04:05:52;;;;;;;23.45;5.13;;;;;;;;;;4923700;28;20149;-60
2022/02/08 04:08:21;;;;;;;29.17;5.75;;;;;;;;;;4941683;28;20070;-60
2022/02/08 04:10:55;;;;;;;32.85;5.68;;;;;;;;;;4941020;28;20046;-60
2022/02/08 04:13:30;;;;;;;23.13;5.28;;;;;;;;;;4933170;28;20031;-60
2022/02/08 04:44:52;;;;;;;20.87;3.27;;;;;;;;;;4939470;28;21881;-60
2022/02/08 04:47:29;;;;;;;17.73;4.05;;;;;;;;;;4939034;28;20030;-61
2022/02/08 04:49:58;;;;;;;20.17;3.75;;;;;;;;;;4940383;28;20530;-59
2022/02/08 04:52:25;;;;;;;21.45;3.97;;;;;;;;;;4938473;28;20070;-60
2022/02/08 04:55:07;;;;;;;20.92;4.10;;;;;;;;;;4938498;28;20609;-61
2022/02/08 04:57:47;;;;;;;12.02;3.20;;;;;;;;;;4940360;28;20033;-60
2022/02/08 05:00:26;;;;;;;28.05;4.80;;;;;;;;;;4939134;28;20118;-59
2022/02/08 05:44:26;;;;;;;27.70;3.05;;;;;;;;;;4939057;28;20498;-59
2022/02/08 05:46:54;;;;;;;14.65;2.40;;;;;;;;;;4950241;28;20506;-59
2022/02/08 05:49:24;;;;;;;15.07;2.92;;;;;;;;;;4948895;28;20041;-60
2022/02/08 05:54:15;;;;;;;13.52;2.72;;;;;;;;;;4955754;28;20105;-61
2022/02/08 05:56:42;;;;;;;25.85;2.90;;;;;;;;;;4939027;28;20467;-61
2022/02/08 05:59:08;;;;;;;11.18;2.63;;;;;;;;;;4952155;28;20113;-61
2022/02/08 06:01:36;;;;;;;13.38;2.85;;;;;;;;;;4946306;28;20555;-64
2022/02/08 06:04:10;;;;;;;7.75;2.28;;;;;;;;;;4949720;28;20034;-61
2022/02/08 06:06:35;;;;;;;10.68;2.55;;;;;;;;;;4949564;28;20055;-61
2022/02/08 06:09:05;;;;;;;11.93;2.60;;;;;;;;;;4941179;28;20043;-61
2022/02/08 06:11:35;;;;;;;11.70;2.13;;;;;;;;;;4948689;28;20613;-62
2022/02/08 06:14:03;;;;;;;18.35;2.30;;;;;;;;;;4928430;28;20586;-60
2022/02/08 06:16:28;;;;;;;10.65;2.25;;;;;;;;;;4947302;28;20675;-60
2022/02/08 06:18:56;;;;;;;10.13;2.28;;;;;;;;;;4938471;28;20173;-60
2022/02/08 06:21:27;;;;;;;12.77;1.95;;;;;;;;;;4936623;28;20482;-60
2022/02/08 06:23:54;;;;;;;9.85;2.35;;;;;;;;;;4936727;28;20062;-60
2022/02/08 06:26:23;;;;;;;14.98;2.85;;;;;;;;;;4934624;28;20034;-60
2022/02/08 06:29:00;;;;;;;20.23;2.63;;;;;;;;;;4949418;28;20031;-61
2022/02/08 06:31:28;;;;;;;9.00;1.75;;;;;;;;;;4940453;28;20399;-60
2022/02/08 06:33:56;;;;;;;18.65;2.28;;;;;;;;;;4937396;28;20019;-60
2022/02/08 06:36:26;;;;;;;14.75;2.20;;;;;;;;;;4936452;28;20027;-60
2022/02/08 06:38:54;;;;;;;20.67;2.08;;;;;;;;;;4936802;28;20046;-61
2022/02/08 06:41:22;;;;;;;10.73;2.00;;;;;;;;;;4936095;28;20084;-61
2022/02/08 06:43:49;;;;;;;11.52;2.30;;;;;;;;;;4919544;28;20479;-62
2022/02/08 06:46:15;;;;;;;10.10;2.10;;;;;;;;;;4929568;28;20054;-59
2022/02/08 06:48:41;;;;;;;13.27;1.88;;;;;;;;;;4922167;28;20050;-60
2022/02/08 06:51:11;;;;;;;17.20;2.33;;;;;;;;;;4936237;28;20700;-60
2022/02/08 06:53:37;;;;;;;17.30;2.65;;;;;;;;;;4931340;28;20039;-60
2022/02/08 06:56:03;;;;;;;12.02;2.08;;;;;;;;;;4940711;28;20230;-59
2022/02/08 06:58:46;;;;;;;19.38;2.50;;;;;;;;;;4944586;28;20031;-60
2022/02/08 07:01:14;;;;;;;17.75;2.35;;;;;;;;;;4952542;28;20065;-61
2022/02/08 07:03:41;;;;;;;8.80;2.30;;;;;;;;;;4940990;28;20486;-60
2022/02/08 07:06:06;;;;;;;16.70;2.03;;;;;;;;;;4938216;28;20054;-61
2022/02/08 07:08:35;;;;;;;31.23;2.30;;;;;;;;;;4943613;28;20058;-59
2022/02/08 07:11:00;;;;;;;16.20;2.22;;;;;;;;;;4941984;28;20031;-61
2022/02/08 07:13:28;;;;;;;20.02;2.20;;;;;;;;;;4942631;28;20039;-61
2022/02/08 07:15:54;;;;;;;15.98;2.83;;;;;;;;;;4953159;28;20034;-60
2022/02/08 07:18:19;;;;;;;16.77;2.17;;;;;;;;;;4941425;28;20046;-62
2022/02/08 07:20:44;;;;;;;10.77;1.98;;;;;;;;;;4951059;28;20070;-59
2022/02/08 07:23:17;;;;;;;18.77;2.10;;;;;;;;;;4927370;28;20035;-60
2022/02/08 07:25:45;;;;;;;8.18;1.80;;;;;;;;;;4939238;28;20443;-60
2022/02/08 07:28:15;;;;;;;16.73;2.85;;;;;;;;;;4935513;28;20513;-62
2022/02/08 07:30:43;;;;;;;7.25;1.92;;;;;;;;;;4936970;28;20050;-59
2022/02/08 07:33:08;;;;;;;16.40;2.80;;;;;;;;;;4931227;28;20032;-61
2022/02/08 07:35:48;;;;;;;8.52;1.90;;;;;;;;;;4939427;28;20107;-61
2022/02/08 07:38:36;;;;;;;15.23;2.10;;;;;;;;;;4947960;28;20034;-61
2022/02/08 07:43:29;;;;;;;8.52;2.28;;;;;;;;;;4940834;28;20056;-61
2022/02/08 07:46:02;;;;;;;17.83;2.20;;;;;;;;;;4940061;28;20043;-61
2022/02/08 07:48:28;;;;;;;21.55;2.17;;;;;;;;;;4952873;28;20090;-60
2022/02/08 07:50:54;;;;;;;12.05;2.45;;;;;;;;;;4935879;28;20051;-60
2022/02/08 07:53:22;;;;;;;6.97;1.98;;;;;;;;;;4936122;28;20023;-62
2022/02/08 07:55:47;;;;;;;12.23;2.33;;;;;;;;;;4938309;28;20039;-58
2022/02/08 07:58:13;;;;;;;14.52;1.45;;;;;;;;;;4939988;28;20089;-60
2022/02/08 08:00:41;;;;;;;6.03;1.40;;;;;;;;;;4939516;28;20038;-59
2022/02/08 08:03:10;;;;;;;12.55;2.78;;;;;;;;;;4915824;28;21985;-59
2022/02/08 08:05:36;;;;;;;22.67;2.17;;;;;;;;;;4938422;28;20110;-61
2022/02/08 08:08:04;;;;;;;10.10;1.77;;;;;;;;;;4937713;28;20039;-59
2022/02/08 08:10:31;;;;;;;11.20;2.63;;;;;;;;;;4923747;28;20040;-60
2022/02/08 08:13:03;;;;;;;14.00;1.95;;;;;;;;;;4938388;28;20167;-62
2022/02/08 08:19:19;;;;;;;13.48;2.60;;;;;;;;;;4951051;28;20050;-61
2022/02/08 08:20:59;;;;;;;8.83;1.37;;;;;;;;;;4930037;28;20999;-60
2022/02/08 08:23:24;;;;;;;8.38;1.50;;;;;;;;;;4953436;28;20302;-63
2022/02/08 08:25:57;;;;;;;13.88;1.55;;;;;;;;;;4926261;28;20051;-58
2022/02/08 08:28:26;;;;;;;8.20;1.48;;;;;;;;;;4933797;28;20113;-59
2022/02/08 08:31:23;;;;;;;11.13;2.50;;;;;;;;;;4953491;28;20077;-59
2022/02/08 08:34:13;;;;;;;21.15;2.60;;;;;;;;;;4929932;28;20150;-58
2022/02/08 08:36:42;;;;;;;17.88;1.63;;;;;;;;;;4938598;28;20565;-60
2022/02/08 08:39:09;;;;;;;11.13;1.80;;;;;;;;;;4937917;28;20058;-62
2022/02/08 08:41:54;;;;;;;12.98;1.92;;;;;;;;;;4938321;28;20050;-61
2022/02/08 08:52:29;;;;;;;12.98;2.35;;;;;;;;;;4950731;28;20045;-61
2022/02/08 08:54:55;;;;;;;18.65;1.88;;;;;;;;;;4954628;28;20120;-60
2022/02/08 08:57:21;;;;;;;9.98;1.50;;;;;;;;;;4939766;28;20030;-62
2022/02/08 08:59:46;;;;;;;9.35;1.98;;;;;;;;;;4952920;28;20054;-62
2022/02/08 09:02:11;;;;;;;13.82;2.10;;;;;;;;;;4921816;28;20039;-61
2022/02/08 09:04:41;;;;;;;11.70;1.63;;;;;;;;;;4936578;28;20026;-60
2022/02/08 09:07:09;;;;;;;11.75;1.38;;;;;;;;;;4948647;28;20049;-63
2022/02/08 09:09:41;;;;;;;6.32;1.27;;;;;;;;;;4939186;28;20031;-62
2022/02/08 09:12:27;;;;;;;12.00;1.80;;;;;;;;;;4935136;28;20035;-62
2022/02/08 09:23:13;;;;;;;17.40;2.75;;;;;;;;;;4936364;28;20129;-61
2022/02/08 09:25:49;;;;;;;15.80;1.92;;;;;;;;;;4945792;28;20150;-61
2022/02/08 09:28:53;;;;;;;10.05;1.80;;;;;;;;;;4936461;28;20031;-62
2022/02/08 09:31:18;;;;;;;9.82;1.42;;;;;;;;;;4932411;28;20133;-60
2022/02/08 09:33:48;;;;;;;10.85;1.70;;;;;;;;;;4937182;28;20082;-59
2022/02/08 09:36:14;;;;;;;4.68;1.20;;;;;;;;;;4916063;28;20153;-62
2022/02/08 09:38:39;;;;;;;11.98;1.88;;;;;;;;;;4939102;28;20027;-61
2022/02/08 09:41:05;;;;;;;12.38;1.75;;;;;;;;;;4929572;28;20046;-61
2022/02/08 09:43:34;;;;;;;11.10;1.83;;;;;;;;;;4937943;28;20089;-62
2022/02/08 09:46:04;;;;;;;9.20;1.98;;;;;;;;;;4935149;28;20039;-60
2022/02/08 09:48:39;;;;;;;12.77;1.95;;;;;;;;;;4933147;28;20114;-59
2022/02/08 09:51:05;;;;;;;10.43;1.60;;;;;;;;;;4948393;28;20058;-61
2022/02/08 09:53:36;;;;;;;12.48;1.98;;;;;;;;;;4926478;28;20035;-62
2022/02/08 09:56:02;;;;;;;12.95;1.55;;;;;;;;;;4933959;28;20034;-61
2022/02/08 09:58:28;;;;;;;12.75;1.80;;;;;;;;;;4947441;28;20026;-64
2022/02/08 10:01:10;;;;;;;9.77;1.30;;;;;;;;;;4948731;28;20035;-61
2022/02/08 10:03:48;;;;;;;11.38;1.80;;;;;;;;;;4936292;28;20541;-61
2022/02/08 10:06:13;;;;;;;9.02;2.00;;;;;;;;;;4935137;28;20042;-60
2022/02/08 10:08:38;;;;;;;16.48;2.17;;;;;;;;;;4934573;28;20523;-61
2022/02/08 10:11:14;;;;;;;13.73;1.88;;;;;;;;;;4925810;28;20058;-61
2022/02/08 10:21:48;;;;;;;9.63;1.83;;;;;;;;;;4929993;28;20047;-58
2022/02/08 10:24:17;;;;;;;13.52;1.55;;;;;;;;;;4945062;28;22283;-60
2022/02/08 10:29:25;;;;;;;10.35;1.60;;;;;;;;;;4933452;28;20042;-61
2022/02/08 10:37:47;;;;;;;9.30;1.90;;;;;;;;;;4939374;28;20046;-61
2022/02/08 10:40:05;;;;;;;8.88;1.77;;;;;;;;;;4939206;28;20055;-61
2022/02/08 10:42:36;;;;;;;13.52;2.08;;;;;;;;;;4941913;28;20027;-62
2022/02/08 10:45:16;;;;;;;9.55;1.65;;;;;;;;;;4941356;28;20027;-61
2022/02/08 10:47:48;;;;;;;11.48;2.08;;;;;;;;;;4940434;28;20088;-58
2022/02/08 10:50:14;;;;;;;9.82;1.50;;;;;;;;;;4939758;28;20047;-63
2022/02/08 10:52:44;;;;;;;13.68;2.20;;;;;;;;;;4940070;28;20101;-61
2022/02/08 10:56:12;;;;;;;8.90;1.65;;;;;;;;;;4939830;28;20158;-60
2022/02/08 11:01:02;;;;;;;12.95;1.73;;;;;;;;;;4941309;28;19918;-63
2022/02/08 11:03:34;;;;;;;10.20;2.15;;;;;;;;;;4919496;28;21038;-61
2022/02/08 11:06:09;;;;;;;7.88;1.58;;;;;;;;;;4942037;28;20047;-60
2022/02/08 11:08:49;;;;;;;;;;;;;;;;;;4940387;28;20046;-61
2022/02/08 11:16:56;;;;;;;9.43;1.73;;;;;;;;;;4941631;28;20043;-60
2022/02/08 11:19:38;;;;;;;21.90;2.28;;;;;;;;;;4952124;28;20035;-61
2022/02/08 11:22:22;;;;;;;15.30;1.92;;;;;;;;;;4937964;28;20783;-60
2022/02/08 11:24:51;;;;;;;9.07;1.20;;;;;;;;;;4941898;28;20706;-61
2022/02/08 11:27:19;;;;;;;4.75;1.15;;;;;;;;;;4940344;28;20030;-59
2022/02/08 11:29:58;;;;;;;15.55;2.65;;;;;;;;;;4939984;28;20058;-59
2022/02/08 11:32:48;;;;;;;13.43;1.63;;;;;;;;;;4933941;28;20559;-59
2022/02/08 11:44:05;;;;;;;9.05;1.25;;;;;;;;;;4939082;28;20039;-63
2022/02/08 11:49:31;;;;;;;8.45;2.00;;;;;;;;;;4944373;28;20046;-61
2022/02/08 11:52:22;;;;;;;16.80;1.60;;;;;;;;;;4939832;28;20047;-64
2022/02/08 12:07:24;;;;;;;11.52;1.95;;;;;;;;;;4953827;28;20149;-60
2022/02/08 12:10:05;;;;;;;15.82;1.50;;;;;;;;;;4935599;28;20043;-61
2022/02/08 12:34:43;;;;;;;10.35;2.17;;;;;;;;;;4937017;28;20041;-62
2022/02/08 13:01:56;;;;;;;11.50;2.10;;;;;;;;;;4936496;28;20034;-63
2022/02/08 14:02:08;;;;;;;13.18;2.00;;;;;;;;;;4935424;28;20042;-61
2022/02/08 14:07:33;;;;;;;16.95;2.30;;;;;;;;;;4936224;28;20027;-60
2022/02/08 14:10:14;;;;;;;14.10;1.52;;;;;;;;;;4933692;28;20031;-58
2022/02/08 14:15:49;;;;;;;13.57;2.03;;;;;;;;;;4935797;28;20114;-60
2022/02/08 14:23:08;;;;;;;15.00;1.65;;;;;;;;;;4939303;28;20125;-60
2022/02/08 14:31:55;;;;;;;11.35;1.48;;;;;;;;;;4946657;28;20046;-62
2022/02/08 15:09:53;;;;;;;6.90;1.50;;;;;;;;;;4936140;28;20046;-61
2022/02/08 15:12:21;;;;;;;12.45;1.58;;;;;;;;;;4950136;28;20469;-62
2022/02/08 15:14:59;;;;;;;18.75;1.83;;;;;;;;;;4934881;28;20035;-60
2022/02/08 15:17:27;;;;;;;18.42;2.03;;;;;;;;;;4936312;28;20077;-62
2022/02/08 15:19:58;;;;;;;13.80;2.35;;;;;;;;;;4936871;28;20078;-62
2022/02/08 15:22:23;;;;;;;12.88;2.13;;;;;;;;;;4938603;28;20178;-59
2022/02/08 15:24:49;;;;;;;12.75;1.63;;;;;;;;;;4929279;28;20062;-62
2022/02/08 15:27:15;;;;;;;12.82;1.85;;;;;;;;;;4919679;28;20023;-61
2022/02/08 15:29:45;;;;;;;21.83;2.08;;;;;;;;;;4938955;28;20031;-62
2022/02/08 15:32:15;;;;;;;8.73;1.67;;;;;;;;;;4935518;28;20039;-63
2022/02/08 15:34:42;;;;;;;12.38;1.65;;;;;;;;;;4937544;28;20089;-59
2022/02/08 15:37:08;;;;;;;11.30;2.08;;;;;;;;;;4938078;28;20054;-62
2022/02/08 15:39:33;;;;;;;12.35;1.67;;;;;;;;;;4938007;28;20911;-60
2022/02/08 15:42:04;;;;;;;14.63;2.03;;;;;;;;;;4910134;28;20553;-59
2022/02/08 15:44:35;;;;;;;17.02;2.00;;;;;;;;;;4934931;28;20050;-60
2022/02/08 15:47:07;;;;;;;5.45;1.48;;;;;;;;;;4937562;28;20116;-61
2022/02/08 15:49:39;;;;;;;12.38;2.17;;;;;;;;;;4940064;28;21643;-61
2022/02/08 15:52:22;;;;;;;12.55;1.83;;;;;;;;;;4939306;28;20035;-61
2022/02/08 15:54:52;;;;;;;12.10;1.55;;;;;;;;;;4954028;28;20035;-62
2022/02/08 15:57:58;;;;;;;13.95;2.00;;;;;;;;;;4919569;28;20023;-61
2022/02/08 16:08:38;;;;;;;20.23;2.97;;;;;;;;;;4865560;29;20036;-61
2022/02/08 16:16:21;;;;;;;13.98;1.98;;;;;;;;;;4942401;28;20410;-62
2022/02/08 16:22:06;;;;;;;16.13;1.63;;;;;;;;;;4947530;28;20113;-61
2022/02/08 16:46:15;;;;;;;14.10;1.83;;;;;;;;;;4950062;28;20298;-62
2022/02/08 16:55:09;;;;;;;13.63;1.77;;;;;;;;;;4937134;28;20035;-61
2022/02/08 16:57:52;;;;;;;18.52;2.25;;;;;;;;;;4937242;28;20035;-59
2022/02/08 17:00:22;;;;;;;12.35;2.78;;;;;;;;;;4941252;28;20125;-62
2022/02/08 17:02:48;;;;;;;13.88;2.38;;;;;;;;;;4940277;28;20125;-60
2022/02/08 17:05:16;;;;;;;16.42;2.10;;;;;;;;;;4941988;28;20053;-58
2022/02/08 17:07:44;;;;;;;11.20;2.20;;;;;;;;;;4940568;28;20066;-61
2022/02/08 17:10:27;;;;;;;8.63;2.00;;;;;;;;;;4940513;28;20114;-60
2022/02/08 17:13:01;;;;;;;10.57;2.88;;;;;;;;;;4935666;28;20406;-61
2022/02/08 17:47:58;;;;;;;17.75;2.30;;;;;;;;;;4941026;28;20039;-61
2022/02/08 17:50:26;;;;;;;15.63;2.30;;;;;;;;;;4938133;28;20027;-60
2022/02/08 17:52:57;;;;;;;17.77;2.13;;;;;;;;;;4938148;28;21964;-60
2022/02/08 17:55:26;;;;;;;17.30;2.92;;;;;;;;;;4923927;28;20061;-61
2022/02/08 17:57:55;;;;;;;18.83;2.78;;;;;;;;;;4933970;28;20038;-61
2022/02/08 18:00:20;;;;;;;19.17;1.98;;;;;;;;;;4954518;28;20069;-61
2022/02/08 18:02:49;;;;;;;10.13;1.65;;;;;;;;;;4938957;28;20069;-61
2022/02/08 18:05:15;;;;;;;33.75;2.80;;;;;;;;;;4938030;28;20038;-60
2022/02/08 18:07:44;;;;;;;13.90;1.90;;;;;;;;;;4937740;28;20130;-60
2022/02/08 18:10:11;;;;;;;17.90;2.65;;;;;;;;;;4941743;28;20121;-59
2022/02/08 18:12:45;;;;;;;19.85;2.50;;;;;;;;;;4933756;28;20031;-61
2022/02/08 18:15:13;;;;;;;17.77;2.83;;;;;;;;;;4936011;28;20015;-61
2022/02/08 18:17:54;;;;;;;11.85;1.65;;;;;;;;;;4937738;28;20126;-62
2022/02/08 18:20:35;;;;;;;17.67;2.22;;;;;;;;;;4936954;28;20319;-61
2022/02/08 19:21:31;;;;;;;23.70;3.30;;;;;;;;;;4941214;28;20281;-61
2022/02/08 19:23:54;;;;;;;18.05;2.83;;;;;;;;;;4936572;28;20045;-62
2022/02/08 19:26:22;;;;;;;13.27;2.67;;;;;;;;;;4936959;28;20082;-62
2022/02/08 19:28:53;;;;;;;23.05;3.10;;;;;;;;;;4940132;28;20035;-61
2022/02/08 19:31:22;;;;;;;24.73;3.22;;;;;;;;;;4941116;28;20115;-61
2022/02/08 19:33:51;;;;;;;16.05;2.90;;;;;;;;;;4955950;28;20126;-61
2022/02/08 19:36:19;;;;;;;19.13;3.15;;;;;;;;;;4940141;28;20065;-62
2022/02/08 19:38:48;;;;;;;15.52;3.17;;;;;;;;;;4953644;28;20687;-61
2022/02/08 19:41:22;;;;;;;19.30;3.00;;;;;;;;;;4940919;28;20035;-62
2022/02/08 19:43:48;;;;;;;14.10;2.92;;;;;;;;;;4941769;28;20057;-61
2022/02/08 19:46:17;;;;;;;32.70;3.92;;;;;;;;;;4955986;28;20735;-62
2022/02/08 19:48:45;;;;;;;18.08;2.53;;;;;;;;;;4942188;28;20038;-61
2022/02/08 19:51:42;;;;;;;18.52;3.58;;;;;;;;;;4941020;28;20047;-63
2022/02/08 19:54:16;;;;;;;22.50;3.17;;;;;;;;;;4954642;28;20027;-62
2022/02/08 19:57:06;;;;;;;19.48;3.70;;;;;;;;;;4939372;28;20023;-63
2022/02/08 19:59:35;;;;;;;15.50;3.33;;;;;;;;;;4937912;28;20039;-64
2022/02/08 20:02:01;;;;;;;22.48;3.90;;;;;;;;;;4940015;28;20489;-61
2022/02/08 20:04:27;;;;;;;17.55;3.28;;;;;;;;;;4941705;28;22028;-67
2022/02/08 20:06:57;;;;;;;20.45;3.55;;;;;;;;;;4938429;28;20026;-62
2022/02/08 20:09:23;;;;;;;18.95;3.35;;;;;;;;;;4940457;28;20075;-62
2022/02/08 20:11:49;;;;;;;18.30;3.35;;;;;;;;;;4957181;28;20038;-62
2022/02/08 20:14:17;;;;;;;25.58;3.30;;;;;;;;;;4936728;28;20023;-62
2022/02/08 20:16:43;;;;;;;12.15;3.13;;;;;;;;;;4940656;28;20059;-61
2022/02/08 20:19:13;;;;;;;23.10;3.92;;;;;;;;;;4937089;28;21958;-62
2022/02/08 20:21:41;;;;;;;18.85;4.03;;;;;;;;;;4941215;28;20074;-61
2022/02/08 20:24:12;;;;;;;12.30;3.45;;;;;;;;;;4926622;28;20102;-63
2022/02/08 20:29:15;;;;;;;18.25;3.92;;;;;;;;;;4952812;28;20451;-62
2022/02/08 20:31:47;;;;;;;22.95;4.18;;;;;;;;;;4954993;28;20458;-62
2022/02/08 20:34:17;;;;;;;18.67;3.78;;;;;;;;;;4937155;28;20035;-62
2022/02/08 20:36:43;;;;;;;17.73;4.10;;;;;;;;;;4941639;28;20137;-63
2022/02/08 20:39:12;;;;;;;31.10;5.22;;;;;;;;;;4937713;28;20118;-62
2022/02/08 20:41:42;;;;;;;26.60;4.80;;;;;;;;;;4939489;28;20493;-63
2022/02/08 20:44:14;;;;;;;18.90;4.00;;;;;;;;;;4939469;28;20027;-63
2022/02/08 20:46:52;;;;;;;20.88;4.55;;;;;;;;;;4937402;28;20613;-62
2022/02/08 20:49:17;;;;;;;19.27;3.38;;;;;;;;;;4936819;28;20301;-63
2022/02/08 20:51:47;;;;;;;16.35;3.92;;;;;;;;;;4937958;28;20051;-61
2022/02/08 20:54:15;;;;;;;19.38;3.65;;;;;;;;;;4952649;28;20042;-62
2022/02/08 20:56:50;;;;;;;12.70;3.40;;;;;;;;;;4954189;28;20122;-62
2022/02/08 20:59:24;;;;;;;13.70;3.83;;;;;;;;;;4938928;28;20035;-62
2022/02/08 21:01:50;;;;;;;25.00;4.57;;;;;;;;;;4930077;28;20158;-61
2022/02/08 21:06:44;;;;;;;18.23;3.58;;;;;;;;;;4936459;28;20046;-62
2022/02/08 21:09:11;;;;;;;25.10;3.53;;;;;;;;;;4939292;28;20286;-61
2022/02/08 21:11:38;;;;;;;15.30;3.70;;;;;;;;;;4934170;28;20476;-62
2022/02/08 21:14:11;;;;;;;15.88;2.70;;;;;;;;;;4935817;28;20156;-62
2022/02/08 21:16:44;;;;;;;18.02;2.88;;;;;;;;;;4934240;28;20031;-61
2022/02/08 21:19:14;;;;;;;21.88;3.10;;;;;;;;;;4951320;28;20545;-61
2022/02/08 21:21:45;;;;;;;12.15;3.35;;;;;;;;;;4939986;28;20113;-62
2022/02/08 21:24:16;;;;;;;8.97;2.70;;;;;;;;;;4952553;28;20852;-63
2022/02/08 21:26:55;;;;;;;20.23;3.90;;;;;;;;;;4939609;28;20050;-63
2022/02/08 21:51:28;;;;;;;13.55;3.70;;;;;;;;;;4951223;28;20059;-61
2022/02/08 21:53:56;;;;;;;20.55;3.45;;;;;;;;;;4941642;28;20023;-61
2022/02/08 21:56:29;;;;;;;9.88;2.72;;;;;;;;;;4938747;28;20026;-60
2022/02/08 21:58:56;;;;;;;13.82;2.95;;;;;;;;;;4924015;28;20046;-62
2022/02/08 22:01:24;;;;;;;16.02;3.28;;;;;;;;;;4938163;28;20034;-61
2022/02/08 22:03:49;;;;;;;9.15;2.72;;;;;;;;;;4936468;28;20045;-61
2022/02/08 22:06:15;;;;;;;13.57;4.05;;;;;;;;;;4954194;28;20807;-62
2022/02/08 22:08:57;;;;;;;16.17;3.30;;;;;;;;;;4954170;28;20091;-62
2022/02/08 22:20:40;;;;;;;14.10;4.10;;;;;;;;;;4938576;28;20035;-62
2022/02/08 22:22:13;;;;;;;14.63;3.85;;;;;;;;;;4927073;28;20085;-62
2022/02/08 22:24:53;;;;;;;14.35;4.28;;;;;;;;;;4932871;28;20562;-62
2022/02/08 22:30:02;;;;;;;22.55;4.55;;;;;;;;;;4942552;28;20528;-61
2022/02/08 22:32:33;;;;;;;13.57;4.53;;;;;;;;;;4944564;28;20027;-61
2022/02/08 22:35:12;;;;;;;23.92;5.15;;;;;;;;;;4942514;28;20149;-63
2022/02/08 22:37:48;;;;;;;25.98;4.63;;;;;;;;;;4944881;28;21967;-61
2022/02/08 22:40:25;;;;;;;13.20;4.82;;;;;;;;;;4957601;28;20047;-62
2022/02/08 22:43:04;;;;;;;13.57;4.38;;;;;;;;;;4943920;28;20086;-61
2022/02/08 22:45:34;;;;;;;16.70;4.78;;;;;;;;;;4924434;28;20046;-62
2022/02/08 22:48:00;;;;;;;22.38;4.75;;;;;;;;;;4941446;28;20171;-62
2022/02/08 22:50:28;;;;;;;18.05;4.78;;;;;;;;;;4941105;28;20030;-62
2022/02/08 22:52:53;;;;;;;12.32;4.28;;;;;;;;;;4939203;28;20146;-62
2022/02/08 22:55:29;;;;;;;15.38;4.13;;;;;;;;;;4943315;28;20042;-61
2022/02/08 22:58:04;;;;;;;19.88;4.45;;;;;;;;;;4944142;28;20490;-61
2022/02/08 23:00:35;;;;;;;19.52;4.00;;;;;;;;;;4939491;28;20043;-61
2022/02/08 23:03:00;;;;;;;15.52;4.60;;;;;;;;;;4941809;28;20039;-61
2022/02/08 23:05:26;;;;;;;16.58;4.22;;;;;;;;;;4941649;28;20102;-63
2022/02/08 23:07:55;;;;;;;8.55;3.85;;;;;;;;;;4941567;28;20150;-62
2022/02/08 23:10:33;;;;;;;16.52;4.32;;;;;;;;;;4944819;28;21604;-63